Time;durP1;ratioP1;P1;durP2;ratioP2;P2;SDS_P1;SDS_P2;PMS_P1;PMS_P2;Temp;Humidity;BMP_temperature;BMP_pressure;BME280_temperature;BME280_humidity;BME280_pressure;Samples;Min_cycle;Max_cycle;Signal;HPM_P1;HPM_P2
2022/08/03 00:01:38;;;;;;;0.05;0.05;;;16.60;99.90;;;;;;4981272;28;20077;-74
2022/08/03 00:04:05;;;;;;;1.10;0.63;;;16.70;99.90;;;;;;4981378;28;20128;-74
2022/08/03 00:06:31;;;;;;;0.38;0.10;;;16.70;99.90;;;;;;4981719;28;20038;-75
2022/08/03 00:08:56;;;;;;;1.65;0.32;;;16.70;99.90;;;;;;4981359;28;20042;-75
2022/08/03 00:11:22;;;;;;;0.35;0.32;;;16.70;99.90;;;;;;4982065;28;20055;-74
2022/08/03 00:13:48;;;;;;;1.05;0.73;;;16.80;99.90;;;;;;4980757;28;20078;-74
2022/08/03 00:16:14;;;;;;;0.22;0.22;;;16.80;99.90;;;;;;4981061;28;20054;-75
2022/08/03 00:18:40;;;;;;;0.25;0.25;;;16.90;99.90;;;;;;4980662;28;20078;-74
2022/08/03 00:21:06;;;;;;;0.10;0.10;;;16.90;99.90;;;;;;4980437;28;20034;-75
2022/08/03 00:23:32;;;;;;;0.15;0.15;;;16.90;99.90;;;;;;4979380;28;20057;-74
2022/08/03 00:25:57;;;;;;;1.02;0.43;;;16.90;99.90;;;;;;4980042;28;20065;-75
2022/08/03 00:28:23;;;;;;;0.15;0.10;;;16.90;99.90;;;;;;4980911;28;20050;-74
2022/08/03 00:30:49;;;;;;;0.45;0.45;;;16.80;99.90;;;;;;4980606;28;20074;-75
2022/08/03 00:33:14;;;;;;;3.38;0.88;;;16.90;99.90;;;;;;4980808;28;20402;-74
2022/08/03 00:35:40;;;;;;;0.10;0.10;;;16.80;99.90;;;;;;4980430;28;20047;-75
2022/08/03 00:38:05;;;;;;;2.30;1.10;;;16.90;99.90;;;;;;4979073;28;20042;-75
2022/08/03 00:40:32;;;;;;;0.20;0.00;;;16.80;99.90;;;;;;4979423;28;20086;-75
2022/08/03 00:43:00;;;;;;;0.03;0.03;;;16.80;99.90;;;;;;4978847;28;20394;-75
2022/08/03 00:45:34;;;;;;;2.20;0.47;;;16.80;99.90;;;;;;4979220;28;20045;-74
2022/08/03 00:48:01;;;;;;;0.43;0.30;;;16.80;99.90;;;;;;4979343;28;20118;-75
2022/08/03 00:50:29;;;;;;;0.00;0.00;;;16.70;99.90;;;;;;4979613;28;20054;-75
2022/08/03 00:52:57;;;;;;;0.00;0.00;;;16.70;99.90;;;;;;4979076;28;20122;-75
2022/08/03 00:55:24;;;;;;;0.20;0.20;;;16.70;99.90;;;;;;4978744;28;20054;-75
2022/08/03 00:57:49;;;;;;;0.00;0.00;;;16.60;99.90;;;;;;4978967;28;20050;-75
2022/08/03 01:00:18;;;;;;;1.05;0.32;;;16.60;99.90;;;;;;4979482;28;20460;-75
2022/08/03 01:02:44;;;;;;;0.00;0.00;;;16.60;99.90;;;;;;4977867;28;20050;-75
2022/08/03 01:05:10;;;;;;;0.13;0.10;;;16.60;99.90;;;;;;4978720;28;20045;-75
2022/08/03 01:07:57;;;;;;;0.65;0.43;;;16.60;99.90;;;;;;4979017;28;20076;-75
2022/08/03 01:10:49;;;;;;;0.22;0.22;;;16.50;99.90;;;;;;4959795;29;20525;-76
2022/08/03 01:13:35;;;;;;;2.10;0.75;;;16.50;99.90;;;;;;4959660;29;20059;-75
2022/08/03 01:16:11;;;;;;;0.00;0.00;;;16.40;99.90;;;;;;4960378;28;20055;-75
2022/08/03 01:18:51;;;;;;;0.10;0.10;;;16.40;99.90;;;;;;4959667;28;20055;-75
2022/08/03 01:21:37;;;;;;;0.00;0.00;;;16.50;99.90;;;;;;4961311;28;20490;-75
2022/08/03 01:24:06;;;;;;;11.02;0.70;;;16.40;99.90;;;;;;4979174;28;20073;-75
2022/08/03 01:26:45;;;;;;;0.00;0.00;;;16.30;99.90;;;;;;4978440;28;20108;-75
2022/08/03 01:29:39;;;;;;;0.00;0.00;;;16.30;99.90;;;;;;4981069;28;20046;-75
2022/08/03 01:32:09;;;;;;;0.50;0.17;;;16.30;99.90;;;;;;4982065;28;20042;-75
2022/08/03 01:34:42;;;;;;;0.13;0.13;;;16.30;99.90;;;;;;4981114;28;20050;-75
2022/08/03 01:37:09;;;;;;;0.20;0.00;;;16.30;99.90;;;;;;4981229;28;20038;-75
2022/08/03 01:39:38;;;;;;;0.00;0.00;;;16.30;99.90;;;;;;4980675;28;20042;-75
2022/08/03 01:42:06;;;;;;;0.10;0.10;;;16.50;99.90;;;;;;4979748;28;20051;-75
2022/08/03 01:44:37;;;;;;;0.00;0.00;;;16.20;99.90;;;;;;4979369;28;20147;-75
2022/08/03 01:47:03;;;;;;;0.00;0.00;;;16.20;99.90;;;;;;4981047;28;20062;-75
2022/08/03 01:49:32;;;;;;;0.00;0.00;;;16.20;99.90;;;;;;4979868;28;20089;-75
2022/08/03 01:51:58;;;;;;;0.55;0.45;;;16.20;99.90;;;;;;4979413;28;20051;-75
2022/08/03 01:54:26;;;;;;;0.00;0.00;;;16.20;99.90;;;;;;4980580;28;20485;-75
2022/08/03 01:56:55;;;;;;;0.00;0.00;;;16.30;99.90;;;;;;5028253;22;20215;-80
2022/08/03 01:59:21;;;;;;;0.28;0.22;;;16.50;99.90;;;;;;5009511;28;20061;-80
2022/08/03 02:01:49;;;;;;;0.00;0.00;;;16.20;99.90;;;;;;5003923;28;20114;-80
2022/08/03 02:04:17;;;;;;;0.00;0.00;;;16.30;99.90;;;;;;4995135;28;20049;-80
2022/08/03 02:06:45;;;;;;;0.00;0.00;;;16.30;99.90;;;;;;5000521;28;20046;-80
2022/08/03 02:09:13;;;;;;;0.40;0.30;;;16.30;99.90;;;;;;5010830;28;20070;-80
2022/08/03 02:11:40;;;;;;;0.00;0.00;;;16.20;99.90;;;;;;4995727;28;20397;-80
2022/08/03 02:14:08;;;;;;;0.00;0.00;;;16.30;99.90;;;;;;5001494;28;20408;-80
2022/08/03 02:16:35;;;;;;;0.77;0.43;;;17.00;99.90;;;;;;5014046;28;20042;-80
2022/08/03 02:19:05;;;;;;;0.00;0.00;;;16.20;99.90;;;;;;5014156;28;20571;-80
2022/08/03 02:21:34;;;;;;;0.00;0.00;;;16.20;99.90;;;;;;5014429;28;20061;-79
2022/08/03 02:24:00;;;;;;;0.10;0.10;;;16.20;99.90;;;;;;5014687;28;20081;-80
2022/08/03 02:26:29;;;;;;;0.10;0.10;;;16.20;99.90;;;;;;5014683;28;20077;-80
2022/08/03 02:28:58;;;;;;;0.63;0.43;;;16.30;99.90;;;;;;5010626;28;20492;-80
2022/08/03 02:31:28;;;;;;;0.20;0.10;;;16.30;99.90;;;;;;4993996;28;20393;-80
2022/08/03 02:33:58;;;;;;;0.75;0.55;;;16.20;99.90;;;;;;4994850;28;20046;-80
2022/08/03 02:36:27;;;;;;;0.25;0.25;;;16.30;99.90;;;;;;4994996;28;20177;-80
2022/08/03 02:38:58;;;;;;;0.50;0.43;;;16.60;99.90;;;;;;4995058;28;20050;-80
2022/08/03 02:41:29;;;;;;;0.00;0.00;;;16.20;99.90;;;;;;4994874;28;20082;-80
2022/08/03 02:43:58;;;;;;;1.98;1.25;;;16.30;99.90;;;;;;5010013;28;20050;-80
2022/08/03 02:46:29;;;;;;;8.90;0.20;;;16.30;99.90;;;;;;4994371;28;20061;-80
2022/08/03 02:48:56;;;;;;;0.00;0.00;;;16.30;99.90;;;;;;4994625;28;20050;-80
2022/08/03 02:51:23;;;;;;;0.00;0.00;;;16.40;99.90;;;;;;4994529;28;20502;-80
2022/08/03 02:53:50;;;;;;;0.00;0.00;;;16.50;99.90;;;;;;4994536;28;20097;-80
2022/08/03 02:56:17;;;;;;;0.20;0.20;;;16.50;99.90;;;;;;4994392;28;20046;-79
2022/08/03 02:58:45;;;;;;;1.45;0.43;;;16.40;99.90;;;;;;4994874;28;20051;-80
2022/08/03 03:01:12;;;;;;;0.50;0.32;;;16.40;99.90;;;;;;4994584;28;20077;-79
2022/08/03 03:03:39;;;;;;;0.00;0.00;;;16.40;99.90;;;;;;4994782;28;20101;-80
2022/08/03 03:06:06;;;;;;;0.38;0.35;;;16.50;99.90;;;;;;4994710;28;20046;-80
2022/08/03 03:08:32;;;;;;;0.00;0.00;;;16.40;99.90;;;;;;4994553;28;20081;-80
2022/08/03 03:10:59;;;;;;;0.00;0.00;;;16.40;99.90;;;;;;4993879;28;20070;-80
2022/08/03 03:13:30;;;;;;;0.47;0.20;;;16.40;99.90;;;;;;4993983;28;20039;-80
2022/08/03 03:15:59;;;;;;;0.20;0.20;;;16.40;99.90;;;;;;4993954;28;20050;-80
2022/08/03 03:18:27;;;;;;;0.65;0.50;;;16.40;99.90;;;;;;4993737;28;20042;-80
2022/08/03 03:20:54;;;;;;;0.00;0.00;;;16.30;99.90;;;;;;4993843;28;20046;-80
2022/08/03 03:23:22;;;;;;;0.10;0.10;;;16.30;99.90;;;;;;4994361;28;20405;-80
2022/08/03 03:25:48;;;;;;;0.13;0.13;;;16.30;99.90;;;;;;4993967;28;20053;-80
2022/08/03 03:28:14;;;;;;;0.10;0.10;;;16.30;99.90;;;;;;4995155;28;20061;-80
2022/08/03 03:30:40;;;;;;;0.05;0.05;;;16.30;99.90;;;;;;4997955;28;20038;-80
2022/08/03 03:33:06;;;;;;;0.20;0.13;;;16.20;99.90;;;;;;4996265;28;20038;-80
2022/08/03 03:35:32;;;;;;;0.30;0.30;;;16.20;99.90;;;;;;4997532;28;20097;-80
2022/08/03 03:37:58;;;;;;;0.88;0.45;;;16.10;99.90;;;;;;4997468;28;20038;-80
2022/08/03 03:40:25;;;;;;;0.00;0.00;;;16.20;99.90;;;;;;4997359;28;20125;-80
2022/08/03 03:42:50;;;;;;;0.00;0.00;;;16.20;99.90;;;;;;4997343;28;20046;-80
2022/08/03 03:45:17;;;;;;;0.17;0.10;;;16.20;99.90;;;;;;4997559;28;20044;-80
2022/08/03 03:47:43;;;;;;;0.00;0.00;;;16.20;99.90;;;;;;4997542;28;20073;-80
2022/08/03 03:50:09;;;;;;;0.22;0.20;;;16.20;99.90;;;;;;4997277;28;20046;-80
2022/08/03 03:52:35;;;;;;;1.23;0.50;;;16.30;99.90;;;;;;4997011;28;20258;-80
2022/08/03 03:55:01;;;;;;;0.65;0.30;;;16.30;99.90;;;;;;4979300;28;20058;-80
2022/08/03 03:57:27;;;;;;;0.10;0.10;;;16.30;99.90;;;;;;4997330;28;20050;-80
2022/08/03 03:59:52;;;;;;;0.65;0.65;;;16.30;99.90;;;;;;4997469;28;20070;-80
2022/08/03 04:02:18;;;;;;;0.05;0.05;;;16.30;99.90;;;;;;4996847;28;20129;-80
2022/08/03 04:13:19;;;;;;;0.55;0.43;;;16.40;99.90;;;;;;4996332;28;20558;-80
2022/08/03 04:15:46;;;;;;;0.22;0.20;;;16.50;99.90;;;;;;4996579;28;20050;-80
2022/08/03 04:18:14;;;;;;;1.75;0.40;;;16.50;99.90;;;;;;4996693;28;20046;-81
2022/08/03 04:20:44;;;;;;;0.20;0.20;;;16.50;99.90;;;;;;4995371;28;20054;-81
2022/08/03 04:23:12;;;;;;;0.22;0.22;;;16.50;99.90;;;;;;4996910;28;20062;-80
2022/08/03 04:25:40;;;;;;;0.35;0.35;;;16.50;99.90;;;;;;4996532;28;20050;-81
2022/08/03 04:28:07;;;;;;;0.00;0.00;;;16.50;99.90;;;;;;4996645;28;20081;-81
2022/08/03 04:30:36;;;;;;;3.42;1.45;;;16.60;99.90;;;;;;4996689;28;20053;-78
2022/08/03 04:33:02;;;;;;;3.10;1.08;;;16.60;99.90;;;;;;4995196;28;20048;-79
2022/08/03 04:35:35;;;;;;;0.00;0.00;;;16.60;99.90;;;;;;4996606;28;20037;-79
2022/08/03 04:38:05;;;;;;;0.43;0.43;;;16.70;99.90;;;;;;4996499;28;20452;-81
2022/08/03 04:40:33;;;;;;;0.22;0.20;;;16.70;99.90;;;;;;4996094;28;20046;-81
2022/08/03 04:43:00;;;;;;;0.10;0.10;;;16.80;99.90;;;;;;4996568;28;20504;-81
2022/08/03 04:45:27;;;;;;;0.00;0.00;;;16.80;99.90;;;;;;4996411;28;20054;-81
2022/08/03 04:47:53;;;;;;;0.70;0.30;;;16.90;99.90;;;;;;4996045;28;20088;-80
2022/08/03 04:50:20;;;;;;;1.50;0.98;;;16.90;99.90;;;;;;4996170;28;20101;-78
2022/08/03 04:52:46;;;;;;;0.30;0.25;;;17.00;99.90;;;;;;4995703;28;20044;-78
2022/08/03 04:55:11;;;;;;;0.55;0.47;;;17.00;99.90;;;;;;4995767;28;20050;-78
2022/08/03 04:57:37;;;;;;;0.03;0.03;;;17.10;99.90;;;;;;4995099;28;20050;-78
2022/08/03 05:00:04;;;;;;;0.00;0.00;;;17.30;99.90;;;;;;4995601;28;20115;-80
2022/08/03 05:02:30;;;;;;;0.15;0.10;;;17.20;99.90;;;;;;4995381;28;20436;-81
2022/08/03 05:04:56;;;;;;;0.63;0.40;;;17.30;99.90;;;;;;4995487;28;20042;-81
2022/08/03 05:07:22;;;;;;;4.85;0.52;;;17.30;99.90;;;;;;4995302;28;20153;-81
2022/08/03 05:09:47;;;;;;;1.85;1.00;;;17.40;99.90;;;;;;4995241;28;20050;-81
2022/08/03 05:12:15;;;;;;;1.75;0.85;;;17.40;99.90;;;;;;4994664;28;20050;-81
2022/08/03 05:14:40;;;;;;;0.52;0.40;;;17.60;99.90;;;;;;4992271;28;20069;-81
2022/08/03 05:17:07;;;;;;;2.17;1.10;;;17.70;99.90;;;;;;4993717;28;20039;-81
2022/08/03 05:19:33;;;;;;;0.10;0.10;;;17.80;99.90;;;;;;4993467;28;20077;-80
2022/08/03 05:21:59;;;;;;;0.65;0.20;;;17.90;99.90;;;;;;4993189;28;20078;-81
2022/08/03 05:24:25;;;;;;;0.03;0.03;;;18.00;99.90;;;;;;4993208;28;20097;-81
2022/08/03 05:26:50;;;;;;;1.13;0.52;;;18.30;99.90;;;;;;4993189;28;20054;-81
2022/08/03 05:29:16;;;;;;;0.25;0.10;;;18.20;99.90;;;;;;4993629;28;20074;-81
2022/08/03 05:31:45;;;;;;;0.10;0.10;;;18.30;99.90;;;;;;5006283;28;20146;-81
2022/08/03 05:34:10;;;;;;;0.52;0.47;;;18.40;99.90;;;;;;5005611;28;20050;-81
2022/08/03 05:36:36;;;;;;;0.17;0.15;;;18.60;99.90;;;;;;4994656;28;20054;-81
2022/08/03 05:39:01;;;;;;;0.15;0.15;;;19.40;99.90;;;;;;4994893;28;20046;-81
2022/08/03 05:41:27;;;;;;;0.63;0.17;;;18.90;99.90;;;;;;4994361;28;20046;-81
2022/08/03 05:43:54;;;;;;;0.20;0.20;;;18.90;99.90;;;;;;4994295;28;20508;-82
2022/08/03 05:46:23;;;;;;;5.60;1.00;;;19.10;99.90;;;;;;4993717;28;20077;-81
2022/08/03 05:48:49;;;;;;;0.90;0.40;;;19.40;99.90;;;;;;4993990;28;20053;-81
2022/08/03 05:51:15;;;;;;;0.15;0.15;;;19.70;99.90;;;;;;4993728;28;20544;-81
2022/08/03 05:53:41;;;;;;;0.80;0.68;;;20.10;99.90;;;;;;4994169;28;20082;-81
2022/08/03 05:56:07;;;;;;;0.10;0.10;;;20.30;99.90;;;;;;4994016;28;20046;-81
2022/08/03 05:58:33;;;;;;;2.80;0.70;;;20.70;99.90;;;;;;4994038;28;20046;-81
2022/08/03 06:00:58;;;;;;;0.43;0.28;;;21.00;99.90;;;;;;4993755;28;20050;-81
2022/08/03 06:03:24;;;;;;;0.00;0.00;;;21.40;99.90;;;;;;4994076;28;20374;-82
2022/08/03 06:05:49;;;;;;;0.08;0.08;;;21.70;99.90;;;;;;4994247;28;20113;-82
2022/08/03 06:08:15;;;;;;;1.52;1.13;;;22.00;99.90;;;;;;4994499;28;20046;-82
2022/08/03 06:10:40;;;;;;;0.00;0.00;;;22.30;99.90;;;;;;4993677;28;20046;-82
2022/08/03 06:13:06;;;;;;;0.52;0.40;;;22.50;99.90;;;;;;4994153;28;20046;-80
2022/08/03 06:15:34;;;;;;;0.80;0.52;;;22.80;99.90;;;;;;4993776;28;20050;-80
2022/08/03 06:17:59;;;;;;;0.20;0.20;;;22.80;99.90;;;;;;4994099;28;20090;-80
2022/08/03 06:20:25;;;;;;;0.13;0.13;;;22.80;99.90;;;;;;4993879;28;20070;-80
2022/08/03 06:22:51;;;;;;;0.55;0.22;;;22.80;99.90;;;;;;4993870;28;20046;-80
2022/08/03 06:25:18;;;;;;;0.47;0.40;;;23.00;99.90;;;;;;4993574;28;20046;-80
2022/08/03 06:27:44;;;;;;;1.00;0.57;;;22.80;99.90;;;;;;4993789;28;20090;-80
2022/08/03 06:30:10;;;;;;;0.00;0.00;;;23.20;99.90;;;;;;4993800;28;20089;-80
2022/08/03 06:32:37;;;;;;;1.45;0.65;;;23.60;99.90;;;;;;4993607;28;20457;-80
2022/08/03 06:35:05;;;;;;;0.00;0.00;;;24.10;99.90;;;;;;4993873;28;20108;-80
2022/08/03 06:37:30;;;;;;;0.00;0.00;;;24.10;99.90;;;;;;4993554;28;20374;-80
2022/08/03 06:39:56;;;;;;;0.20;0.20;;;24.30;99.90;;;;;;4992310;28;20061;-80
2022/08/03 06:42:22;;;;;;;1.25;0.60;;;24.50;99.90;;;;;;4993620;28;20048;-80
2022/08/03 06:44:47;;;;;;;0.80;0.77;;;24.60;99.90;;;;;;4994010;28;20543;-80
2022/08/03 06:47:13;;;;;;;0.30;0.30;;;24.70;99.90;;;;;;4979745;28;20039;-80
2022/08/03 06:49:39;;;;;;;0.15;0.15;;;25.00;99.90;;;;;;4982268;28;20035;-79
2022/08/03 06:52:05;;;;;;;0.30;0.30;;;25.50;99.90;;;;;;4981027;28;20055;-80
2022/08/03 06:54:31;;;;;;;1.15;0.63;;;25.80;99.90;;;;;;4982731;28;20575;-80
2022/08/03 06:56:56;;;;;;;1.88;0.80;;;26.00;99.90;;;;;;4987565;28;20058;-80
2022/08/03 06:59:22;;;;;;;0.52;0.15;;;25.90;99.90;;;;;;4984886;28;20504;-80
2022/08/03 07:01:47;;;;;;;4.32;1.35;;;25.90;99.90;;;;;;4983120;28;20101;-80
2022/08/03 07:04:13;;;;;;;0.43;0.30;;;26.40;99.90;;;;;;4987851;28;20055;-80
2022/08/03 07:06:38;;;;;;;0.35;0.20;;;26.10;99.90;;;;;;4984836;28;20042;-80
2022/08/03 07:09:04;;;;;;;1.02;0.50;;;25.90;99.90;;;;;;4989047;28;20100;-80
2022/08/03 07:11:30;;;;;;;1.00;0.60;;;25.80;99.90;;;;;;4979075;28;20053;-80
2022/08/03 07:13:55;;;;;;;1.02;0.47;;;26.00;99.90;;;;;;4996628;28;20046;-80
2022/08/03 07:16:21;;;;;;;0.10;0.10;;;26.20;99.90;;;;;;4997630;28;20061;-79
2022/08/03 07:18:47;;;;;;;2.88;1.45;;;25.90;99.90;;;;;;4993574;28;20050;-79
2022/08/03 07:21:14;;;;;;;0.00;0.00;;;26.00;99.90;;;;;;4984965;28;20038;-79
2022/08/03 07:23:40;;;;;;;0.10;0.10;;;26.00;99.90;;;;;;4985789;28;20042;-78
2022/08/03 07:26:06;;;;;;;0.28;0.28;;;26.50;99.90;;;;;;4997215;28;20046;-79
2022/08/03 07:28:32;;;;;;;1.70;1.15;;;26.70;99.90;;;;;;4996820;28;20121;-78
2022/08/03 07:30:58;;;;;;;1.05;0.60;;;27.10;99.90;;;;;;4996996;28;20119;-79
2022/08/03 07:33:24;;;;;;;4.18;1.23;;;27.30;99.90;;;;;;4996769;28;20054;-79
2022/08/03 07:35:49;;;;;;;1.80;1.13;;;27.40;99.90;;;;;;4996590;28;20062;-79
2022/08/03 07:38:15;;;;;;;0.20;0.20;;;28.00;99.90;;;;;;4996935;28;20079;-79
2022/08/03 07:40:41;;;;;;;9.70;1.27;;;28.10;99.90;;;;;;4979067;28;20046;-78
2022/08/03 07:43:06;;;;;;;1.92;1.50;;;28.50;96.90;;;;;;4996581;28;20512;-79
2022/08/03 07:45:32;;;;;;;0.30;0.28;;;28.70;94.00;;;;;;4996312;28;20046;-79
2022/08/03 07:47:57;;;;;;;6.05;0.85;;;28.60;97.60;;;;;;4996916;28;20042;-79
2022/08/03 07:50:23;;;;;;;2.33;1.00;;;29.00;93.50;;;;;;4996645;28;20082;-78
2022/08/03 07:52:54;;;;;;;0.20;0.20;;;29.20;90.90;;;;;;4996410;28;20109;-79
2022/08/03 07:55:23;;;;;;;3.88;0.95;;;29.20;90.10;;;;;;4994987;28;20057;-79
2022/08/03 07:58:08;;;;;;;0.90;0.70;;;29.30;90.00;;;;;;4996050;28;20053;-80
2022/08/03 08:00:35;;;;;;;0.32;0.32;;;29.50;78.80;;;;;;4996247;28;20046;-80
2022/08/03 08:03:01;;;;;;;0.17;0.17;;;29.60;87.90;;;;;;4997128;28;20042;-80
2022/08/03 08:05:27;;;;;;;0.77;0.52;;;29.80;83.70;;;;;;4996838;28;20154;-81
2022/08/03 08:07:52;;;;;;;1.67;0.60;;;29.80;72.50;;;;;;4996331;28;20058;-78
2022/08/03 08:10:18;;;;;;;0.65;0.47;;;29.60;76.10;;;;;;4996107;28;20161;-77
2022/08/03 08:12:44;;;;;;;1.20;0.50;;;29.80;79.50;;;;;;4987597;28;20077;-73
2022/08/03 08:15:10;;;;;;;0.28;0.22;;;30.20;64.80;;;;;;5002958;28;20042;-73
2022/08/03 08:18:05;;;;;;;0.32;0.30;;;30.00;67.00;;;;;;4993440;28;20522;-73
2022/08/03 08:20:33;;;;;;;0.55;0.55;;;30.30;73.70;;;;;;4988790;28;20054;-73
2022/08/03 08:23:00;;;;;;;0.30;0.30;;;30.50;61.20;;;;;;4999348;28;20042;-73
2022/08/03 08:25:26;;;;;;;0.20;0.20;;;30.70;59.70;;;;;;4997531;28;20043;-73
2022/08/03 08:27:51;;;;;;;0.00;0.00;;;30.40;58.30;;;;;;4997171;28;20112;-74
2022/08/03 08:30:20;;;;;;;0.10;0.10;;;30.70;60.70;;;;;;4996196;28;20142;-74
2022/08/03 08:32:46;;;;;;;0.03;0.03;;;30.80;53.70;;;;;;4995595;28;20065;-74
2022/08/03 08:35:11;;;;;;;4.05;0.88;;;31.10;52.50;;;;;;4995787;28;20046;-74
2022/08/03 08:37:37;;;;;;;1.17;0.90;;;31.20;46.90;;;;;;4983360;28;20035;-74
2022/08/03 08:40:05;;;;;;;2.00;0.65;;;31.30;46.40;;;;;;4977832;28;20353;-74
2022/08/03 08:42:31;;;;;;;4.45;0.75;;;31.40;38.50;;;;;;4976283;28;20056;-73
2022/08/03 08:44:58;;;;;;;1.05;0.30;;;31.20;37.90;;;;;;4979624;28;20085;-73
2022/08/03 08:47:28;;;;;;;0.55;0.47;;;30.90;42.50;;;;;;4979290;28;20039;-74
2022/08/03 08:49:54;;;;;;;1.17;0.40;;;30.80;46.40;;;;;;4977915;28;20050;-73
2022/08/03 08:52:26;;;;;;;3.72;1.23;;;31.00;45.90;;;;;;4979106;28;20070;-72
2022/08/03 08:55:02;;;;;;;1.70;1.08;;;31.10;39.00;;;;;;4978371;28;20043;-73
2022/08/03 08:57:31;;;;;;;4.75;0.40;;;30.90;44.40;;;;;;4976212;28;20114;-73
2022/08/03 08:59:57;;;;;;;0.10;0.10;;;30.90;39.70;;;;;;4979333;28;20073;-74
2022/08/03 09:02:24;;;;;;;0.50;0.38;;;30.60;47.60;;;;;;4977730;28;20085;-74
2022/08/03 09:04:50;;;;;;;2.65;0.73;;;30.90;52.40;;;;;;4980382;28;20079;-74
2022/08/03 09:07:16;;;;;;;0.45;0.40;;;31.30;51.50;;;;;;4981114;28;20039;-75
2022/08/03 09:09:42;;;;;;;22.17;1.13;;;31.40;41.50;;;;;;4983155;28;20055;-74
2022/08/03 09:12:08;;;;;;;2.15;1.33;;;31.60;45.30;;;;;;4981373;28;20061;-74
2022/08/03 09:14:33;;;;;;;0.47;0.30;;;31.90;32.00;;;;;;4984248;28;20134;-73
2022/08/03 09:17:01;;;;;;;1.35;0.85;;;32.40;36.10;;;;;;4994456;28;20031;-75
2022/08/03 09:19:31;;;;;;;0.70;0.47;;;32.70;25.40;;;;;;4985942;28;20055;-74
2022/08/03 09:22:13;;;;;;;0.63;0.30;;;32.50;22.90;;;;;;4985988;28;20118;-76
2022/08/03 09:24:55;;;;;;;1.55;1.13;;;32.50;24.00;;;;;;4984428;28;20038;-75
2022/08/03 09:27:21;;;;;;;1.27;0.55;;;32.40;20.20;;;;;;4976429;28;20537;-75
2022/08/03 09:29:52;;;;;;;2.25;0.68;;;32.70;23.80;;;;;;4980710;28;20122;-75
2022/08/03 09:32:22;;;;;;;29.02;1.35;;;33.00;19.80;;;;;;4979274;28;20069;-77
2022/08/03 09:34:50;;;;;;;0.68;0.43;;;32.60;16.40;;;;;;4980260;28;20054;-77
2022/08/03 09:37:18;;;;;;;0.20;0.13;;;31.90;19.90;;;;;;4976619;28;20121;-78
2022/08/03 09:39:45;;;;;;;1.08;0.63;;;31.20;28.70;;;;;;4976337;28;20050;-78
2022/08/03 09:42:16;;;;;;;2.45;0.68;;;30.50;35.40;;;;;;4976307;28;20401;-78
2022/08/03 09:44:44;;;;;;;1.10;0.50;;;30.60;48.30;;;;;;4975102;28;20422;-78
2022/08/03 09:47:12;;;;;;;2.05;0.75;;;30.90;40.10;;;;;;4976138;28;20078;-77
2022/08/03 09:49:42;;;;;;;2.50;1.65;;;31.00;40.10;;;;;;4976833;28;20107;-78
2022/08/03 09:52:17;;;;;;;9.20;0.40;;;30.90;38.30;;;;;;4975212;28;20468;-78
2022/08/03 09:54:44;;;;;;;2.90;0.82;;;30.40;39.30;;;;;;4976014;28;20061;-78
2022/08/03 09:57:23;;;;;;;0.32;0.32;;;30.30;41.70;;;;;;4976026;28;20105;-79
2022/08/03 09:59:50;;;;;;;0.55;0.43;;;29.70;51.40;;;;;;4975644;28;20129;-79
2022/08/03 10:02:25;;;;;;;1.70;0.43;;;29.80;57.40;;;;;;4976158;28;20046;-78
2022/08/03 10:04:51;;;;;;;3.22;0.40;;;29.80;63.80;;;;;;4975578;28;20129;-78
2022/08/03 10:07:19;;;;;;;0.63;0.52;;;29.70;60.50;;;;;;4975522;28;20401;-78
2022/08/03 10:09:55;;;;;;;1.13;0.70;;;29.90;63.30;;;;;;4975048;28;20042;-78
2022/08/03 10:12:21;;;;;;;0.00;0.00;;;29.90;64.90;;;;;;4975704;28;20047;-78
2022/08/03 10:14:47;;;;;;;0.45;0.20;;;30.10;66.10;;;;;;4975802;28;20449;-79
2022/08/03 10:17:13;;;;;;;0.45;0.30;;;30.20;58.10;;;;;;4975594;28;20461;-78
2022/08/03 10:19:40;;;;;;;2.05;0.50;;;30.20;51.20;;;;;;4975221;28;20121;-78
2022/08/03 10:22:15;;;;;;;6.40;0.55;;;30.50;55.30;;;;;;4977560;28;20050;-78
2022/08/03 10:25:02;;;;;;;1.00;0.47;;;30.60;48.40;;;;;;4976605;28;20042;-79
2022/08/03 10:27:33;;;;;;;2.53;1.75;;;30.60;44.30;;;;;;4976139;28;20043;-77
2022/08/03 10:30:04;;;;;;;0.25;0.25;;;30.60;42.30;;;;;;4976312;28;20114;-77
2022/08/03 10:32:43;;;;;;;0.40;0.38;;;30.70;46.60;;;;;;4975804;28;20050;-78
2022/08/03 10:35:13;;;;;;;3.13;0.65;;;30.80;44.60;;;;;;4975960;28;20517;-78
2022/08/03 10:37:44;;;;;;;0.38;0.25;;;30.80;35.80;;;;;;4988664;28;20042;-77
2022/08/03 10:40:15;;;;;;;0.75;0.55;;;30.80;33.60;;;;;;4996574;28;20100;-78
2022/08/03 10:42:43;;;;;;;1.25;0.80;;;30.70;39.70;;;;;;4997120;28;20042;-77
2022/08/03 10:45:18;;;;;;;1.40;0.57;;;30.60;39.70;;;;;;4996574;28;20042;-77
2022/08/03 10:47:46;;;;;;;0.43;0.38;;;30.50;36.60;;;;;;4996289;28;20042;-78
2022/08/03 10:50:12;;;;;;;1.85;0.57;;;30.50;41.30;;;;;;4995791;28;20050;-77
2022/08/03 10:52:57;;;;;;;4.88;1.73;;;30.60;39.40;;;;;;4995945;28;20084;-78
2022/08/03 10:58:36;;;;;;;0.20;0.17;;;30.30;42.20;;;;;;4996378;28;20291;-77
2022/08/03 11:01:07;;;;;;;0.10;0.10;;;30.30;39.60;;;;;;4995812;28;20054;-78
2022/08/03 11:03:33;;;;;;;1.63;0.55;;;30.20;41.60;;;;;;4995724;28;20042;-78
2022/08/03 11:06:18;;;;;;;0.95;0.70;;;29.80;47.30;;;;;;4996748;28;20508;-77
2022/08/03 11:08:48;;;;;;;5.40;1.60;;;29.60;49.40;;;;;;4997006;28;20445;-78
2022/08/03 11:11:16;;;;;;;0.68;0.55;;;29.30;53.30;;;;;;4997018;28;20173;-78
2022/08/03 11:14:03;;;;;;;2.78;2.00;;;29.20;59.20;;;;;;4996821;28;20047;-78
2022/08/03 11:16:35;;;;;;;0.40;0.28;;;29.00;61.90;;;;;;4996047;28;20564;-77
2022/08/03 11:19:04;;;;;;;0.20;0.17;;;28.90;72.30;;;;;;4996413;28;20555;-78
2022/08/03 11:21:50;;;;;;;0.28;0.28;;;28.80;72.50;;;;;;4997757;28;20070;-79
2022/08/03 11:24:50;;;;;;;1.25;0.70;;;28.90;71.60;;;;;;4999659;28;20047;-78
2022/08/03 11:27:17;;;;;;;0.28;0.13;;;29.10;74.10;;;;;;5000073;28;20101;-77
2022/08/03 11:30:00;;;;;;;0.73;0.43;;;29.30;73.30;;;;;;5001365;28;20085;-78
2022/08/03 11:32:47;;;;;;;1.15;0.57;;;29.80;66.90;;;;;;5001571;28;20057;-78
2022/08/03 11:35:34;;;;;;;0.77;0.63;;;29.80;63.70;;;;;;5005001;28;20046;-78
2022/08/03 11:38:00;;;;;;;0.75;0.65;;;30.00;53.70;;;;;;5003474;28;20053;-79
2022/08/03 11:40:35;;;;;;;5.25;1.58;;;29.90;51.50;;;;;;5003139;28;20046;-78
2022/08/03 11:43:02;;;;;;;9.88;1.25;;;29.80;54.00;;;;;;5004556;28;20402;-78
2022/08/03 11:45:30;;;;;;;4.05;0.88;;;30.10;54.00;;;;;;5003892;28;20050;-78
2022/08/03 11:47:57;;;;;;;10.13;1.27;;;30.20;55.20;;;;;;5002822;28;20466;-78
2022/08/03 11:50:24;;;;;;;1.08;0.70;;;30.70;48.30;;;;;;4999119;28;20054;-77
2022/08/03 11:52:50;;;;;;;1.20;0.98;;;31.50;40.60;;;;;;5000690;28;20049;-77
2022/08/03 11:55:20;;;;;;;4.22;0.98;;;31.60;32.10;;;;;;5001757;28;20042;-78
2022/08/03 11:57:46;;;;;;;3.40;0.68;;;31.90;32.80;;;;;;4999934;28;20054;-77
2022/08/03 12:00:20;;;;;;;1.17;0.75;;;32.40;26.60;;;;;;4999319;28;21001;-77
2022/08/03 12:03:06;;;;;;;2.42;1.35;;;33.10;23.80;;;;;;5000879;28;20078;-78
2022/08/03 12:05:40;;;;;;;0.20;0.20;;;33.60;15.80;;;;;;5000119;28;20054;-78
2022/08/03 12:08:08;;;;;;;4.75;1.08;;;34.20;14.30;;;;;;5000774;28;20057;-79
2022/08/03 12:10:34;;;;;;;0.20;0.20;;;35.30;9.50;;;;;;5000656;28;20046;-78
2022/08/03 12:13:01;;;;;;;3.05;0.55;;;35.00;4.10;;;;;;5000983;28;20053;-77
2022/08/03 12:15:32;;;;;;;1.45;0.45;;;34.60;2.00;;;;;;5000482;28;20502;-78
2022/08/03 12:17:59;;;;;;;8.38;1.63;;;34.40;2.30;;;;;;4999766;28;20050;-78
2022/08/03 12:20:28;;;;;;;0.98;0.35;;;34.40;2.40;;;;;;5001677;28;20081;-80
2022/08/03 12:22:54;;;;;;;4.97;0.75;;;34.60;1.70;;;;;;5001588;28;20042;-80
2022/08/03 12:25:25;;;;;;;0.85;0.73;;;34.60;1.70;;;;;;5003925;28;20093;-79
2022/08/03 12:28:16;;;;;;;3.85;1.10;;;34.90;1.00;;;;;;5000120;28;20346;-81
2022/08/03 12:30:42;;;;;;;3.72;1.88;;;35.30;1.00;;;;;;4997489;28;20466;-78
2022/08/03 12:33:20;;;;;;;0.70;0.30;;;35.80;1.00;;;;;;4998732;28;20076;-78
2022/08/03 12:35:47;;;;;;;2.30;1.30;;;35.80;1.00;;;;;;5000129;28;20122;-81
2022/08/03 12:38:18;;;;;;;7.03;0.70;;;36.20;1.00;;;;;;4999652;28;20448;-78
2022/08/03 12:40:44;;;;;;;1.52;0.73;;;35.90;1.00;;;;;;4997919;28;20046;-78
2022/08/03 12:43:13;;;;;;;1.35;0.98;;;35.40;1.00;;;;;;4999390;28;20050;-80
2022/08/03 12:45:39;;;;;;;0.93;0.65;;;35.50;1.00;;;;;;4994835;28;20035;-78
2022/08/03 12:48:12;;;;;;;0.45;0.32;;;35.60;1.00;;;;;;4983271;28;20090;-79
2022/08/03 12:50:39;;;;;;;0.73;0.55;;;36.00;1.00;;;;;;4982369;28;20047;-79
2022/08/03 12:53:08;;;;;;;3.15;1.45;;;36.00;1.00;;;;;;4984554;28;20050;-79
2022/08/03 12:55:36;;;;;;;0.50;0.35;;;36.10;1.00;;;;;;4986054;28;20050;-79
2022/08/03 12:58:09;;;;;;;2.20;1.10;;;36.50;1.00;;;;;;4985040;28;20069;-79
2022/08/03 13:00:35;;;;;;;12.07;0.55;;;36.90;1.00;;;;;;4983435;28;20130;-80
2022/08/03 13:03:04;;;;;;;2.22;1.45;;;37.10;1.00;;;;;;4983912;28;20066;-78
2022/08/03 13:05:30;;;;;;;2.58;1.13;;;37.10;1.00;;;;;;4982229;28;20173;-79
2022/08/03 13:07:57;;;;;;;1.98;1.08;;;36.70;1.00;;;;;;5005204;28;20060;-79